createdAt,value
2023-04-16T00:02:04.378Z,2.17
2023-04-16T00:04:31.394Z,1.83
2023-04-16T00:06:58.339Z,1.83
2023-04-16T00:09:25.260Z,2.90
2023-04-16T00:11:54.791Z,1.67
2023-04-16T00:14:21.676Z,1.70
2023-04-16T00:16:48.686Z,2.70
2023-04-16T00:19:15.624Z,1.97
2023-04-16T00:21:42.627Z,1.90
2023-04-16T00:24:09.827Z,2.37
2023-04-16T00:26:36.702Z,2.80
2023-04-16T00:29:06.227Z,2.40
2023-04-16T00:31:34.036Z,2.83
2023-04-16T00:34:01.032Z,2.27
2023-04-16T00:36:28.860Z,3.23
2023-04-16T00:38:56.429Z,2.40
2023-04-16T00:41:23.562Z,2.33
2023-04-16T00:43:50.604Z,2.93
2023-04-16T00:46:22.109Z,2.13
2023-04-16T00:48:50.136Z,2.83
2023-04-16T00:51:18.524Z,2.90
2023-04-16T00:53:46.039Z,2.43
2023-04-16T00:56:13.528Z,3.70
2023-04-16T00:58:40.618Z,2.73
2023-04-16T01:01:07.531Z,2.67
2023-04-16T01:03:39.851Z,3.10
2023-04-16T01:06:07.186Z,2.83
2023-04-16T01:08:34.197Z,3.00
2023-04-16T01:11:01.125Z,3.97
2023-04-16T01:13:28.030Z,2.90
2023-04-16T01:15:55.012Z,2.80
2023-04-16T01:18:22.939Z,2.87
2023-04-16T01:20:52.677Z,3.23
2023-04-16T01:23:19.763Z,2.57
2023-04-16T01:25:47.366Z,3.17
2023-04-16T01:28:14.466Z,3.23
2023-04-16T01:30:41.597Z,2.90
2023-04-16T01:33:10.862Z,3.47
2023-04-16T01:35:37.956Z,2.90
2023-04-16T01:38:08.528Z,3.27
2023-04-16T01:40:35.675Z,2.60
2023-04-16T01:43:02.637Z,2.80
2023-04-16T01:45:31.005Z,3.07
2023-04-16T01:47:58.053Z,3.73
2023-04-16T01:50:25.159Z,3.70
2023-04-16T01:52:52.043Z,3.73
2023-04-16T01:55:21.800Z,3.37
2023-04-16T01:57:48.734Z,3.20
2023-04-16T02:00:15.889Z,3.37
2023-04-16T02:02:42.990Z,4.13
2023-04-16T02:05:10.006Z,3.10
2023-04-16T02:07:36.952Z,4.30
2023-04-16T02:10:04.099Z,3.50
2023-04-16T02:12:33.609Z,3.43
2023-04-16T02:15:00.513Z,3.67
2023-04-16T02:17:27.548Z,3.13
2023-04-16T02:19:54.500Z,3.23
2023-04-16T02:22:21.416Z,3.47
2023-04-16T02:24:48.340Z,3.33
2023-04-16T02:27:15.291Z,3.10
2023-04-16T02:29:44.810Z,3.17
2023-04-16T02:32:11.906Z,3.30
2023-04-16T02:34:38.908Z,3.13
2023-04-16T02:37:05.842Z,3.33
2023-04-16T02:39:32.759Z,2.73
2023-04-16T02:41:59.650Z,3.50
2023-04-16T02:44:26.517Z,3.60
2023-04-16T02:46:55.949Z,3.37
2023-04-16T02:49:22.975Z,2.87
2023-04-16T02:51:49.910Z,3.30
2023-04-16T02:54:16.771Z,3.27
2023-04-16T02:56:43.663Z,3.20
2023-04-16T02:59:10.795Z,3.27
2023-04-16T03:01:37.961Z,3.27
2023-04-16T03:04:07.590Z,3.77
2023-04-16T03:06:34.707Z,3.77
2023-04-16T03:09:01.608Z,3.67
2023-04-16T03:11:28.495Z,3.47
2023-04-16T03:13:55.450Z,3.27
2023-04-16T03:16:22.768Z,3.43
2023-04-16T03:18:49.778Z,3.87
2023-04-16T03:21:19.245Z,3.63
2023-04-16T03:23:46.133Z,3.90
2023-04-16T03:26:13.013Z,4.03
2023-04-16T03:28:39.916Z,3.50
2023-04-16T03:31:06.810Z,3.87
2023-04-16T03:33:33.732Z,3.50
2023-04-16T03:36:00.623Z,4.30
2023-04-16T03:38:30.158Z,4.20
2023-04-16T03:40:57.050Z,3.83
2023-04-16T03:43:23.934Z,3.93
2023-04-16T03:45:51.069Z,4.13
2023-04-16T03:48:17.952Z,3.63
2023-04-16T03:50:46.146Z,4.37
2023-04-16T03:53:13.009Z,4.30
2023-04-16T03:55:43.090Z,3.93
2023-04-16T03:58:10.121Z,4.93
2023-04-16T04:00:37.015Z,4.20
2023-04-16T04:03:04.273Z,4.17
2023-04-16T04:05:31.393Z,3.77
2023-04-16T04:07:58.290Z,3.93
2023-04-16T04:10:25.165Z,4.00
2023-04-16T04:12:54.647Z,4.33
2023-04-16T04:15:21.536Z,3.93
2023-04-16T04:17:48.473Z,3.60
2023-04-16T04:20:15.706Z,3.83
2023-04-16T04:22:42.600Z,3.50
2023-04-16T04:25:10.621Z,4.03
2023-04-16T04:27:37.746Z,3.60
2023-04-16T04:30:08.638Z,4.43
2023-04-16T04:32:35.608Z,4.00
2023-04-16T04:35:03.374Z,3.83
2023-04-16T04:37:30.265Z,3.93
2023-04-16T04:39:57.128Z,4.10
2023-04-16T04:42:24.917Z,4.00
2023-04-16T04:44:51.788Z,4.63
2023-04-16T04:47:21.334Z,4.20
2023-04-16T04:49:48.218Z,4.10
2023-04-16T04:52:15.173Z,4.10
2023-04-16T04:54:42.170Z,4.33
2023-04-16T04:57:09.031Z,3.73
2023-04-16T04:59:35.912Z,3.87
2023-04-16T05:02:02.968Z,4.10
2023-04-16T05:04:32.883Z,4.03
2023-04-16T05:06:59.886Z,4.30
2023-04-16T05:09:26.774Z,4.33
2023-04-16T05:11:53.825Z,4.37
2023-04-16T05:14:20.736Z,4.67
2023-04-16T05:16:47.668Z,4.73
2023-04-16T05:19:14.592Z,4.17
2023-04-16T05:21:44.100Z,4.27
2023-04-16T05:24:12.061Z,4.27
2023-04-16T05:26:40.535Z,4.10
2023-04-16T05:29:07.552Z,5.10
2023-04-16T05:31:34.694Z,4.40
2023-04-16T05:34:01.634Z,4.30
2023-04-16T05:36:28.592Z,4.70
2023-04-16T05:38:58.091Z,4.23
2023-04-16T05:41:25.109Z,4.03
2023-04-16T05:43:52.042Z,3.93
2023-04-16T05:46:18.974Z,3.90
2023-04-16T05:48:45.934Z,3.87
2023-04-16T05:51:12.833Z,4.47
2023-04-16T05:53:39.701Z,3.47
2023-04-16T05:56:09.557Z,3.93
2023-04-16T05:58:36.442Z,4.33
2023-04-16T06:01:03.406Z,4.07
2023-04-16T06:03:30.461Z,4.03
2023-04-16T06:05:57.542Z,4.20
2023-04-16T06:08:24.466Z,4.77
2023-04-16T06:10:51.416Z,3.80
2023-04-16T06:13:20.962Z,3.60
2023-04-16T06:15:47.906Z,4.00
2023-04-16T06:18:14.854Z,3.73
2023-04-16T06:20:41.809Z,4.40
2023-04-16T06:23:08.720Z,3.80
2023-04-16T06:25:35.611Z,4.40
2023-04-16T06:28:02.569Z,3.40
2023-04-16T06:30:32.172Z,3.90
2023-04-16T06:32:59.393Z,3.73
2023-04-16T06:35:26.487Z,3.70
2023-04-16T06:37:53.367Z,4.43
2023-04-16T06:40:20.406Z,4.33
2023-04-16T06:42:47.330Z,3.67
2023-04-16T06:45:14.374Z,4.17
2023-04-16T06:47:43.907Z,4.50
2023-04-16T06:50:11.513Z,4.00
2023-04-16T06:52:38.504Z,4.20
2023-04-16T06:55:06.742Z,3.87
2023-04-16T06:57:35.134Z,3.80
2023-04-16T07:00:03.616Z,3.50
2023-04-16T07:02:30.687Z,4.30
2023-04-16T07:05:00.269Z,4.00
2023-04-16T07:07:27.107Z,4.50
2023-04-16T07:09:53.966Z,4.40
2023-04-16T07:12:22.469Z,3.73
2023-04-16T07:14:49.888Z,4.40
2023-04-16T07:17:16.842Z,5.10
2023-04-16T07:19:44.020Z,3.70
2023-04-16T07:22:13.549Z,3.70
2023-04-16T07:24:40.409Z,3.90
2023-04-16T07:27:07.377Z,4.43
2023-04-16T07:29:34.336Z,6.70
2023-04-16T07:32:01.425Z,4.27
2023-04-16T07:34:28.384Z,4.17
2023-04-16T07:36:55.272Z,4.03
2023-04-16T07:39:24.804Z,3.57
2023-04-16T07:41:51.733Z,3.83
2023-04-16T07:44:18.646Z,3.53
2023-04-16T07:46:47.425Z,3.77
2023-04-16T07:49:14.789Z,4.23
2023-04-16T07:51:41.702Z,4.10
2023-04-16T07:54:08.558Z,4.27
2023-04-16T07:56:38.105Z,4.67
2023-04-16T07:59:18.362Z,4.03
2023-04-16T08:01:49.436Z,3.83
2023-04-16T08:04:16.565Z,4.20
2023-04-16T08:06:43.589Z,4.57
2023-04-16T08:09:10.734Z,4.17
2023-04-16T08:11:40.437Z,4.10
2023-04-16T08:14:07.323Z,3.97
2023-04-16T08:16:34.231Z,3.93
2023-04-16T08:19:01.186Z,4.50
2023-04-16T08:21:28.260Z,3.90
2023-04-16T08:23:55.179Z,4.27
2023-04-16T08:26:22.131Z,4.30
2023-04-16T08:28:51.636Z,4.33
2023-04-16T08:31:18.715Z,4.57
2023-04-16T08:33:45.646Z,5.43
2023-04-16T08:36:12.530Z,4.37
2023-04-16T08:38:39.455Z,3.50
2023-04-16T08:41:09.459Z,4.80
2023-04-16T08:43:38.658Z,4.40
2023-04-16T08:46:09.034Z,4.13
2023-04-16T08:48:37.564Z,5.13
2023-04-16T08:51:08.970Z,3.77
2023-04-16T08:53:43.213Z,4.90
2023-04-16T08:56:11.860Z,4.37
2023-04-16T08:58:40.302Z,4.50
2023-04-16T09:01:10.910Z,4.60
2023-04-16T09:03:38.598Z,4.17
2023-04-16T09:06:07.585Z,5.77
2023-04-16T09:08:34.976Z,5.27
2023-04-16T09:11:02.083Z,5.40
2023-04-16T09:13:29.183Z,4.40
2023-04-16T09:15:56.289Z,4.57
2023-04-16T09:18:25.996Z,4.87
2023-04-16T09:20:53.228Z,4.80
2023-04-16T09:23:20.075Z,4.37
2023-04-16T09:25:46.998Z,5.47
2023-04-16T09:28:33.829Z,4.53
2023-04-16T09:31:08.773Z,5.00
2023-04-16T09:33:38.558Z,4.83
2023-04-16T09:36:06.417Z,4.37
2023-04-16T09:38:46.616Z,4.60
2023-04-16T09:41:14.108Z,4.67
2023-04-16T09:43:40.997Z,4.77
2023-04-16T09:46:11.561Z,5.83
2023-04-16T09:48:41.124Z,4.93
2023-04-16T09:51:08.156Z,4.47
2023-04-16T09:53:35.554Z,7.10
2023-04-16T09:56:05.470Z,6.80
2023-04-16T09:58:32.757Z,6.43
2023-04-16T10:01:01.569Z,5.50
2023-04-16T10:03:31.975Z,5.70
2023-04-16T10:06:07.934Z,6.00
2023-04-16T10:08:34.892Z,5.60
2023-04-16T10:11:02.542Z,5.07
2023-04-16T10:13:29.415Z,5.83
2023-04-16T10:15:59.051Z,5.43
2023-04-16T10:18:26.211Z,5.20
2023-04-16T10:20:53.372Z,6.23
2023-04-16T10:23:23.212Z,5.63
2023-04-16T10:25:50.933Z,5.47
2023-04-16T10:28:18.302Z,6.17
2023-04-16T10:30:47.696Z,5.40
2023-04-16T10:33:14.886Z,6.00
2023-04-16T10:35:41.791Z,6.17
2023-04-16T10:38:34.771Z,6.03
2023-04-16T10:41:03.453Z,6.43
2023-04-16T10:43:31.132Z,6.77
2023-04-16T10:45:58.282Z,6.30
2023-04-16T10:48:30.962Z,6.10
2023-04-16T10:51:05.591Z,6.80
2023-04-16T10:53:37.492Z,6.40
2023-04-16T10:56:11.592Z,5.97
2023-04-16T10:58:38.648Z,6.23
2023-04-16T11:01:08.004Z,5.67
2023-04-16T11:03:34.990Z,5.67
2023-04-16T11:06:12.355Z,7.47
2023-04-16T11:08:54.063Z,6.00
2023-04-16T11:11:38.138Z,6.93
2023-04-16T11:14:05.194Z,6.80
2023-04-16T11:16:32.463Z,8.77
2023-04-16T11:18:59.445Z,8.03
2023-04-16T11:21:26.801Z,8.13
2023-04-16T11:23:57.966Z,10.20
2023-04-16T11:26:26.204Z,9.27
2023-04-16T11:28:54.344Z,9.53
2023-04-16T11:31:21.416Z,8.70
2023-04-16T11:33:48.576Z,9.50
2023-04-16T11:36:15.577Z,8.67
2023-04-16T11:38:42.539Z,9.10
2023-04-16T11:41:20.053Z,8.67
2023-04-16T11:43:47.036Z,8.40
2023-04-16T11:46:24.550Z,9.77
2023-04-16T11:48:55.452Z,9.60
2023-04-16T11:51:22.387Z,8.67
2023-04-16T11:53:50.315Z,8.50
2023-04-16T11:56:25.585Z,8.53
2023-04-16T11:59:07.043Z,9.63
2023-04-16T12:01:36.872Z,9.47
2023-04-16T12:04:04.507Z,8.53
2023-04-16T12:06:31.904Z,10.10
2023-04-16T12:08:58.858Z,10.13
2023-04-16T12:11:43.194Z,9.33
2023-04-16T12:14:11.252Z,8.97
2023-04-16T12:16:38.272Z,9.43
2023-04-16T12:19:05.879Z,9.40
2023-04-16T12:21:43.506Z,9.07
2023-04-16T12:24:11.610Z,8.43
2023-04-16T12:26:40.201Z,9.70
2023-04-16T12:29:20.577Z,9.07
2023-04-16T12:31:47.916Z,10.63
2023-04-16T12:34:15.217Z,9.40
2023-04-16T12:36:42.753Z,10.00
2023-04-16T12:39:10.520Z,10.20
2023-04-16T12:41:39.338Z,9.47
2023-04-16T12:44:07.246Z,9.63
2023-04-16T12:46:36.809Z,9.70
2023-04-16T12:49:03.773Z,9.10
2023-04-16T12:51:31.419Z,9.87
2023-04-16T12:53:58.363Z,10.00
2023-04-16T12:56:25.320Z,9.17
2023-04-16T12:58:52.251Z,9.77
2023-04-16T13:01:19.621Z,9.70
2023-04-16T13:03:49.976Z,8.87
2023-04-16T13:06:17.710Z,10.40
2023-04-16T13:08:45.215Z,11.40
2023-04-16T13:11:12.944Z,11.23
2023-04-16T13:13:39.906Z,10.93
2023-04-16T13:16:06.900Z,14.30
2023-04-16T13:18:35.364Z,11.63
2023-04-16T13:21:04.914Z,11.00
2023-04-16T13:23:31.935Z,9.33
2023-04-16T13:25:58.966Z,11.10
2023-04-16T13:28:25.938Z,11.27
2023-04-16T13:30:53.354Z,10.33
2023-04-16T13:33:21.195Z,9.90
2023-04-16T13:35:48.779Z,9.33
2023-04-16T13:38:18.450Z,10.47
2023-04-16T13:40:45.437Z,8.93
2023-04-16T13:43:12.476Z,8.80
2023-04-16T13:45:39.712Z,8.90
2023-04-16T13:48:06.823Z,8.40
2023-04-16T13:50:33.749Z,8.97
2023-04-16T13:53:00.710Z,7.57
2023-04-16T13:55:30.936Z,7.73
2023-04-16T13:57:58.019Z,8.23
2023-04-16T14:00:26.208Z,7.90
2023-04-16T14:02:53.350Z,8.60
2023-04-16T14:05:20.408Z,8.63
2023-04-16T14:07:47.409Z,8.80
2023-04-16T14:10:14.369Z,8.37
2023-04-16T14:12:43.958Z,7.93
2023-04-16T14:15:11.433Z,8.40
2023-04-16T14:17:38.438Z,7.40
2023-04-16T14:20:06.446Z,7.67
2023-04-16T14:22:33.469Z,6.77
2023-04-16T14:25:00.395Z,7.80
2023-04-16T14:27:28.546Z,7.03
2023-04-16T14:29:58.222Z,6.87
2023-04-16T14:32:25.178Z,6.73
2023-04-16T14:34:52.162Z,6.30
2023-04-16T14:37:19.269Z,6.33
2023-04-16T14:39:46.203Z,7.27
2023-04-16T14:42:13.303Z,6.43
2023-04-16T14:44:40.251Z,6.40
2023-04-16T14:47:09.900Z,6.87
2023-04-16T14:49:36.895Z,5.97
2023-04-16T14:52:04.149Z,6.50
2023-04-16T14:54:31.730Z,6.47
2023-04-16T14:56:58.875Z,6.13
2023-04-16T14:59:25.797Z,5.93
2023-04-16T15:01:53.072Z,6.10
2023-04-16T15:04:22.921Z,5.03
2023-04-16T15:06:50.002Z,5.53
2023-04-16T15:09:16.998Z,6.47
2023-04-16T15:11:43.997Z,5.50
2023-04-16T15:14:11.109Z,6.43
2023-04-16T15:16:38.356Z,5.77
2023-04-16T15:19:05.533Z,6.13
2023-04-16T15:21:35.197Z,6.47
2023-04-16T15:24:02.216Z,5.90
2023-04-16T15:26:29.617Z,7.00
2023-04-16T15:28:56.548Z,6.33
2023-04-16T15:31:23.639Z,6.40
2023-04-16T15:33:50.769Z,6.37
2023-04-16T15:36:17.698Z,5.90
2023-04-16T15:38:47.465Z,6.57
2023-04-16T15:41:14.411Z,6.40
2023-04-16T15:43:41.395Z,6.20
2023-04-16T15:46:08.427Z,6.60
2023-04-16T15:48:35.418Z,6.40
2023-04-16T15:51:02.451Z,5.97
2023-04-16T15:53:29.463Z,5.90
2023-04-16T15:55:59.028Z,5.93
2023-04-16T15:58:26.022Z,6.27
2023-04-16T16:00:52.938Z,6.50
2023-04-16T16:03:20.315Z,6.17
2023-04-16T16:05:47.754Z,7.23
2023-04-16T16:08:15.253Z,6.33
2023-04-16T16:10:42.242Z,7.00
2023-04-16T16:13:11.789Z,6.33
2023-04-16T16:15:39.382Z,5.77
2023-04-16T16:18:06.335Z,6.30
2023-04-16T16:20:33.348Z,5.90
2023-04-16T16:23:00.314Z,6.47
2023-04-16T16:25:27.268Z,7.53
2023-04-16T16:27:54.279Z,6.03
2023-04-16T16:30:23.891Z,6.37
2023-04-16T16:32:50.898Z,6.30
2023-04-16T16:35:17.913Z,7.53
2023-04-16T16:37:44.898Z,8.63
2023-04-16T16:40:11.986Z,6.07
2023-04-16T16:42:38.953Z,7.67
2023-04-16T16:45:07.034Z,6.80
2023-04-16T16:47:36.965Z,7.13
2023-04-16T16:50:04.250Z,6.70
2023-04-16T16:52:31.405Z,6.70
2023-04-16T16:54:58.439Z,6.00
2023-04-16T16:57:25.596Z,5.83
2023-04-16T16:59:52.621Z,5.57
2023-04-16T17:02:19.543Z,5.63
2023-04-16T17:04:49.107Z,5.83
2023-04-16T17:07:16.089Z,5.30
2023-04-16T17:09:43.358Z,5.80
2023-04-16T17:12:10.352Z,5.43
2023-04-16T17:14:37.449Z,6.13
2023-04-16T17:17:04.475Z,5.60
2023-04-16T17:19:33.316Z,5.50
2023-04-16T17:22:03.498Z,5.40
2023-04-16T17:24:30.421Z,6.00
2023-04-16T17:26:57.777Z,5.73
2023-04-16T17:29:25.528Z,5.50
2023-04-16T17:31:52.821Z,6.23
2023-04-16T17:34:20.379Z,8.57
2023-04-16T17:36:47.952Z,6.67
2023-04-16T17:39:18.102Z,7.43
2023-04-16T17:41:45.201Z,7.63
2023-04-16T17:44:12.306Z,6.80
2023-04-16T17:46:39.483Z,5.90
2023-04-16T17:49:06.525Z,6.50
2023-04-16T17:51:33.705Z,6.70
2023-04-16T17:54:01.207Z,5.40
2023-04-16T17:56:30.805Z,5.33
2023-04-16T17:58:57.824Z,5.97
2023-04-16T18:01:25.630Z,6.43
2023-04-16T18:03:52.923Z,6.90
2023-04-16T18:06:20.246Z,6.30
2023-04-16T18:08:47.476Z,5.83
2023-04-16T18:11:14.547Z,7.20
2023-04-16T18:13:44.747Z,6.97
2023-04-16T18:16:14.752Z,6.57
2023-04-16T18:18:43.316Z,7.10
2023-04-16T18:21:10.357Z,7.17
2023-04-16T18:23:37.440Z,6.37
2023-04-16T18:26:04.399Z,6.50
2023-04-16T18:28:31.462Z,6.70
2023-04-16T18:31:01.178Z,6.63
2023-04-16T18:33:49.953Z,7.30
2023-04-16T18:36:15.208Z,7.10
2023-04-16T18:38:56.975Z,6.90
2023-04-16T18:41:26.942Z,6.60
2023-04-16T18:43:54.075Z,8.00
2023-04-16T18:46:23.934Z,8.77
2023-04-16T18:48:53.587Z,7.87
2023-04-16T18:51:21.140Z,8.37
2023-04-16T18:53:48.133Z,9.13
2023-04-16T18:56:15.142Z,9.27
2023-04-16T18:58:42.239Z,9.40
2023-04-16T19:01:09.671Z,8.37
2023-04-16T19:03:41.335Z,8.33
2023-04-16T19:06:09.032Z,7.60
2023-04-16T19:08:36.009Z,6.93
2023-04-16T19:11:04.090Z,6.87
2023-04-16T19:13:35.786Z,7.80
2023-04-16T19:16:03.009Z,6.63
2023-04-16T19:18:30.077Z,6.67
2023-04-16T19:21:02.909Z,6.30
2023-04-16T19:23:30.128Z,6.93
2023-04-16T19:25:58.948Z,6.93
2023-04-16T19:28:26.031Z,6.30
2023-04-16T19:30:53.668Z,6.00
2023-04-16T19:33:23.282Z,6.10
2023-04-16T19:35:50.293Z,5.97
2023-04-16T19:38:20.172Z,6.10
2023-04-16T19:40:50.781Z,6.00
2023-04-16T19:43:17.806Z,6.23
2023-04-16T19:45:49.334Z,5.97
2023-04-16T19:48:16.312Z,5.37
2023-04-16T19:50:46.007Z,5.57
2023-04-16T19:53:16.182Z,6.37
2023-04-16T19:55:46.302Z,5.87
2023-04-16T19:58:13.655Z,6.50
2023-04-16T20:00:41.014Z,5.67
2023-04-16T20:03:08.474Z,5.77
2023-04-16T20:05:35.755Z,5.77
2023-04-16T20:08:03.178Z,5.40
2023-04-16T20:10:30.122Z,6.07
2023-04-16T20:13:01.951Z,5.60
2023-04-16T20:15:32.022Z,5.37
2023-04-16T20:18:02.093Z,5.27
2023-04-16T20:20:33.317Z,5.87
2023-04-16T20:23:00.374Z,5.30
2023-04-16T20:25:29.793Z,5.37
2023-04-16T20:27:59.403Z,5.60
2023-04-16T20:30:26.392Z,7.10
2023-04-16T20:32:55.009Z,5.83
2023-04-16T20:35:22.126Z,5.60
2023-04-16T20:37:50.672Z,5.77
2023-04-16T20:40:17.822Z,5.70
2023-04-16T20:42:46.535Z,5.80
2023-04-16T20:45:16.370Z,6.67
2023-04-16T20:47:46.034Z,6.00
2023-04-16T20:50:13.009Z,6.40
2023-04-16T20:52:40.047Z,5.20
2023-04-16T20:55:08.633Z,6.00
2023-04-16T20:57:35.768Z,5.53
2023-04-16T21:00:02.840Z,5.10
2023-04-16T21:02:32.573Z,5.83
2023-04-16T21:04:59.718Z,6.77
2023-04-16T21:07:26.702Z,5.63
2023-04-16T21:09:53.698Z,5.50
2023-04-16T21:12:20.623Z,5.20
2023-04-16T21:14:47.500Z,4.87
2023-04-16T21:17:15.179Z,5.30
2023-04-16T21:19:44.820Z,5.20
2023-04-16T21:22:11.711Z,5.20
2023-04-16T21:24:38.629Z,5.00
2023-04-16T21:27:05.500Z,5.13
2023-04-16T21:29:32.856Z,6.03
2023-04-16T21:31:59.832Z,4.90
2023-04-16T21:34:26.756Z,4.93
2023-04-16T21:36:56.281Z,5.53
2023-04-16T21:39:23.178Z,4.70
2023-04-16T21:41:50.256Z,4.53
2023-04-16T21:44:17.215Z,4.87
2023-04-16T21:46:44.421Z,4.60
2023-04-16T21:49:11.857Z,4.60
2023-04-16T21:51:40.486Z,5.10
2023-04-16T21:54:10.419Z,5.17
2023-04-16T21:56:37.416Z,4.90
2023-04-16T21:59:04.369Z,4.67
2023-04-16T22:01:31.369Z,4.83
2023-04-16T22:03:58.396Z,4.40
2023-04-16T22:06:25.407Z,5.77
2023-04-16T22:08:52.276Z,4.87
2023-04-16T22:11:21.770Z,5.00
2023-04-16T22:13:48.734Z,4.80
2023-04-16T22:16:15.774Z,5.57
2023-04-16T22:18:42.722Z,5.40
2023-04-16T22:21:09.728Z,4.83
2023-04-16T22:23:36.669Z,4.97
2023-04-16T22:26:03.748Z,4.87
2023-04-16T22:28:33.255Z,4.73
2023-04-16T22:31:00.210Z,4.70
2023-04-16T22:33:29.368Z,4.63
2023-04-16T22:35:56.279Z,4.87
2023-04-16T22:38:23.210Z,4.30
2023-04-16T22:40:50.168Z,4.67
2023-04-16T22:43:17.118Z,4.50
2023-04-16T22:45:46.796Z,4.50
2023-04-16T22:48:13.766Z,5.37
2023-04-16T22:50:44.676Z,3.97
2023-04-16T22:53:11.630Z,4.60
2023-04-16T22:55:38.574Z,4.67
2023-04-16T22:58:05.516Z,4.53
2023-04-16T23:00:32.423Z,5.03
2023-04-16T23:03:02.131Z,4.63
2023-04-16T23:05:29.491Z,4.97
2023-04-16T23:07:56.414Z,7.17
2023-04-16T23:10:23.358Z,4.43
2023-04-16T23:12:50.292Z,5.07
2023-04-16T23:15:17.429Z,4.67
2023-04-16T23:17:44.946Z,5.37
2023-04-16T23:20:14.863Z,5.13
2023-04-16T23:22:41.804Z,4.97
2023-04-16T23:25:09.823Z,5.20
2023-04-16T23:27:37.099Z,5.07
2023-04-16T23:30:05.067Z,5.47
2023-04-16T23:32:32.254Z,5.33
2023-04-16T23:34:59.312Z,5.00
2023-04-16T23:37:28.918Z,5.40
2023-04-16T23:39:56.063Z,5.07
2023-04-16T23:42:22.985Z,5.23
2023-04-16T23:44:49.916Z,5.27
2023-04-16T23:47:16.818Z,5.40
2023-04-16T23:49:44.114Z,5.10
2023-04-16T23:52:11.028Z,5.83
2023-04-16T23:54:40.552Z,5.43
2023-04-16T23:57:07.488Z,5.07
2023-04-16T23:59:34.399Z,5.83
